This is the latest recevied weather packets stored in our database for station/object AJ1L. If no packets are shown the sender has not sent any weather packets the latest 10 day(s).
| Time | Temp. | Humidity | Pressure | Rain* | Wind** | Luminosity | Snow |
|---|---|---|---|---|---|---|---|
| 1777999649 | 25° C | 48% | 1009.6 hPa | 0 mm | - | - | - |
| 1777998649 | 25° C | 48% | 1009.6 hPa | 0 mm | - | - | - |
| 1777996649 | 24.44° C | 48% | 1009.8 hPa | 0 mm | - | - | - |
| 1777995649 | 23.33° C | 51% | 1009.9 hPa | 0 mm | - | - | - |
| 1777994649 | 22.78° C | 54% | 1010 hPa | 0 mm | - | - | - |
| 1777993649 | 22.22° C | 53% | 1010.2 hPa | 0 mm | - | - | - |
| 1777992649 | 21.67° C | 56% | 1010.1 hPa | 0 mm | - | - | - |
| 1777991649 | 20.56° C | 59% | 1010.2 hPa | 0 mm | - | - | - |
| 1777990648 | 20.56° C | 60% | 1010.4 hPa | 0 mm | - | - | - |
| 1777989649 | 20° C | 62% | 1010.4 hPa | 0 mm | - | - | - |
| 1777988648 | 18.89° C | 64% | 1010.6 hPa | 0 mm | - | - | - |
| 1777986762 | 17.22° C | 68% | 1010.5 hPa | 0 mm | - | - | - |
| 1777986649 | 17.22° C | 68% | 1010.5 hPa | 0 mm | - | - | - |
| 1777985648 | 16.67° C | 69% | 1010.8 hPa | 0 mm | - | - | - |
| 1777984648 | 15.56° C | 74% | 1010.7 hPa | 0 mm | - | - | - |
| 1777983649 | 14.44° C | 78% | 1010.5 hPa | 0 mm | - | - | - |
| 1777981648 | 12.78° C | 83% | 1010.6 hPa | 0 mm | - | - | - |
| 1777980649 | 12.22° C | 85% | 1010.8 hPa | 0 mm | - | - | - |
| 1777979648 | 11.67° C | 88% | 1010.7 hPa | 0 mm | - | - | - |
| 1777975648 | 9.44° C | 91% | 1010.5 hPa | 0 mm | - | - | - |
| 1777974648 | 9.44° C | 90% | 1010.6 hPa | 0 mm | - | - | - |
| 1777972648 | 9.44° C | 90% | 1010.7 hPa | 0 mm | - | - | - |
| 1777971648 | 9.44° C | 89% | 1010.8 hPa | 0 mm | - | - | - |
| 1777968648 | 10° C | 88% | 1010.7 hPa | 0 mm | - | - | - |
| 1777963648 | 10° C | 85% | 1010.9 hPa | 0 mm | - | - | - |
* Rain latest hour (hover to see other rain measurements)
** Current wind speed in m/s (hover to see current wind gust speed)